sensor_id;sensor_type;location;lat;lon;timestamp;P1;durP1;ratioP1;P2;durP2;ratioP2
81903;SDS011;71370;-33.792;151.032;2023-09-07T00:00:58;6.40;;;3.30;;
81903;SDS011;71370;-33.792;151.032;2023-09-07T00:02:06;9.90;;;3.40;;
81903;SDS011;71370;-33.792;151.032;2023-09-07T00:03:14;7.00;;;3.00;;
81903;SDS011;71370;-33.792;151.032;2023-09-07T00:04:21;6.60;;;2.80;;
81903;SDS011;71370;-33.792;151.032;2023-09-07T00:05:28;8.20;;;4.70;;
81903;SDS011;71370;-33.792;151.032;2023-09-07T00:06:35;7.50;;;2.80;;
81903;SDS011;71370;-33.792;151.032;2023-09-07T00:07:42;7.30;;;2.90;;
81903;SDS011;71370;-33.792;151.032;2023-09-07T00:08:49;8.30;;;2.70;;
81903;SDS011;71370;-33.792;151.032;2023-09-07T00:09:57;7.30;;;3.10;;
81903;SDS011;71370;-33.792;151.032;2023-09-07T00:11:04;8.90;;;2.80;;
81903;SDS011;71370;-33.792;151.032;2023-09-07T00:12:12;6.40;;;2.90;;
81903;SDS011;71370;-33.792;151.032;2023-09-07T00:13:19;9.50;;;3.60;;
81903;SDS011;71370;-33.792;151.032;2023-09-07T00:14:26;9.10;;;3.80;;
81903;SDS011;71370;-33.792;151.032;2023-09-07T00:15:37;7.80;;;3.60;;
81903;SDS011;71370;-33.792;151.032;2023-09-07T00:16:44;8.80;;;3.60;;
81903;SDS011;71370;-33.792;151.032;2023-09-07T00:17:51;6.70;;;3.40;;
81903;SDS011;71370;-33.792;151.032;2023-09-07T00:18:58;6.90;;;3.40;;
81903;SDS011;71370;-33.792;151.032;2023-09-07T00:20:06;6.90;;;3.10;;
81903;SDS011;71370;-33.792;151.032;2023-09-07T00:21:31;6.70;;;3.30;;
81903;SDS011;71370;-33.792;151.032;2023-09-07T00:22:38;6.10;;;3.70;;
81903;SDS011;71370;-33.792;151.032;2023-09-07T00:23:45;7.30;;;3.10;;
81903;SDS011;71370;-33.792;151.032;2023-09-07T00:24:52;5.10;;;3.00;;
81903;SDS011;71370;-33.792;151.032;2023-09-07T00:25:59;8.50;;;3.60;;
81903;SDS011;71370;-33.792;151.032;2023-09-07T00:27:06;8.00;;;3.10;;
81903;SDS011;71370;-33.792;151.032;2023-09-07T00:28:13;5.20;;;2.70;;
81903;SDS011;71370;-33.792;151.032;2023-09-07T00:29:20;6.40;;;3.30;;
81903;SDS011;71370;-33.792;151.032;2023-09-07T00:30:27;6.20;;;3.40;;
81903;SDS011;71370;-33.792;151.032;2023-09-07T00:31:34;8.60;;;3.70;;
81903;SDS011;71370;-33.792;151.032;2023-09-07T00:32:41;6.70;;;2.90;;
81903;SDS011;71370;-33.792;151.032;2023-09-07T00:33:48;6.70;;;2.80;;
81903;SDS011;71370;-33.792;151.032;2023-09-07T00:34:55;5.90;;;3.70;;
81903;SDS011;71370;-33.792;151.032;2023-09-07T00:36:02;8.60;;;3.80;;
81903;SDS011;71370;-33.792;151.032;2023-09-07T00:37:10;8.60;;;3.60;;
81903;SDS011;71370;-33.792;151.032;2023-09-07T00:38:17;7.60;;;3.70;;
81903;SDS011;71370;-33.792;151.032;2023-09-07T00:39:24;6.00;;;2.90;;
81903;SDS011;71370;-33.792;151.032;2023-09-07T00:40:31;6.90;;;3.30;;
81903;SDS011;71370;-33.792;151.032;2023-09-07T00:41:38;6.80;;;2.90;;
81903;SDS011;71370;-33.792;151.032;2023-09-07T00:42:45;7.50;;;3.10;;
81903;SDS011;71370;-33.792;151.032;2023-09-07T00:43:52;5.20;;;2.50;;
81903;SDS011;71370;-33.792;151.032;2023-09-07T00:44:59;6.40;;;3.20;;
81903;SDS011;71370;-33.792;151.032;2023-09-07T00:46:07;7.00;;;4.20;;
81903;SDS011;71370;-33.792;151.032;2023-09-07T00:47:17;7.70;;;3.40;;
81903;SDS011;71370;-33.792;151.032;2023-09-07T00:48:24;6.40;;;2.50;;
81903;SDS011;71370;-33.792;151.032;2023-09-07T00:49:32;8.90;;;3.60;;
81903;SDS011;71370;-33.792;151.032;2023-09-07T00:50:40;6.30;;;2.80;;
81903;SDS011;71370;-33.792;151.032;2023-09-07T00:51:47;7.00;;;2.80;;
81903;SDS011;71370;-33.792;151.032;2023-09-07T00:52:54;7.70;;;3.30;;
81903;SDS011;71370;-33.792;151.032;2023-09-07T00:54:02;6.70;;;3.20;;
81903;SDS011;71370;-33.792;151.032;2023-09-07T00:55:09;9.10;;;3.60;;
81903;SDS011;71370;-33.792;151.032;2023-09-07T00:56:16;7.50;;;2.90;;
81903;SDS011;71370;-33.792;151.032;2023-09-07T00:57:24;9.00;;;3.00;;
81903;SDS011;71370;-33.792;151.032;2023-09-07T00:58:31;7.50;;;3.60;;
81903;SDS011;71370;-33.792;151.032;2023-09-07T00:59:39;7.00;;;3.10;;
81903;SDS011;71370;-33.792;151.032;2023-09-07T01:00:46;6.60;;;2.50;;
81903;SDS011;71370;-33.792;151.032;2023-09-07T01:01:53;5.90;;;3.10;;
81903;SDS011;71370;-33.792;151.032;2023-09-07T01:03:00;6.40;;;2.60;;
81903;SDS011;71370;-33.792;151.032;2023-09-07T01:04:07;4.90;;;2.20;;
81903;SDS011;71370;-33.792;151.032;2023-09-07T01:05:14;6.30;;;2.40;;
81903;SDS011;71370;-33.792;151.032;2023-09-07T01:06:30;5.70;;;2.20;;
81903;SDS011;71370;-33.792;151.032;2023-09-07T01:07:46;5.80;;;2.10;;
81903;SDS011;71370;-33.792;151.032;2023-09-07T01:08:55;4.90;;;2.10;;
81903;SDS011;71370;-33.792;151.032;2023-09-07T01:10:08;6.30;;;2.50;;
81903;SDS011;71370;-33.792;151.032;2023-09-07T01:11:19;4.90;;;2.10;;
81903;SDS011;71370;-33.792;151.032;2023-09-07T01:12:28;5.60;;;2.50;;
81903;SDS011;71370;-33.792;151.032;2023-09-07T01:13:36;6.10;;;2.00;;
81903;SDS011;71370;-33.792;151.032;2023-09-07T01:14:43;4.10;;;2.30;;
81903;SDS011;71370;-33.792;151.032;2023-09-07T01:15:51;6.00;;;2.30;;
81903;SDS011;71370;-33.792;151.032;2023-09-07T01:16:58;3.80;;;2.00;;
81903;SDS011;71370;-33.792;151.032;2023-09-07T01:18:06;4.70;;;1.80;;
81903;SDS011;71370;-33.792;151.032;2023-09-07T01:19:15;5.40;;;1.70;;
81903;SDS011;71370;-33.792;151.032;2023-09-07T01:20:22;6.40;;;2.40;;
81903;SDS011;71370;-33.792;151.032;2023-09-07T01:21:37;6.00;;;2.10;;
81903;SDS011;71370;-33.792;151.032;2023-09-07T01:22:45;4.50;;;2.20;;
81903;SDS011;71370;-33.792;151.032;2023-09-07T01:23:53;4.60;;;2.10;;
81903;SDS011;71370;-33.792;151.032;2023-09-07T01:25:02;4.60;;;2.20;;
81903;SDS011;71370;-33.792;151.032;2023-09-07T01:26:10;6.30;;;2.00;;
81903;SDS011;71370;-33.792;151.032;2023-09-07T01:27:18;5.70;;;2.60;;
81903;SDS011;71370;-33.792;151.032;2023-09-07T01:28:25;5.00;;;2.10;;
81903;SDS011;71370;-33.792;151.032;2023-09-07T01:29:32;4.40;;;1.70;;
81903;SDS011;71370;-33.792;151.032;2023-09-07T01:30:39;5.50;;;1.90;;
81903;SDS011;71370;-33.792;151.032;2023-09-07T01:31:47;3.80;;;1.50;;
81903;SDS011;71370;-33.792;151.032;2023-09-07T01:32:54;5.50;;;1.80;;
81903;SDS011;71370;-33.792;151.032;2023-09-07T01:34:01;6.10;;;1.90;;
81903;SDS011;71370;-33.792;151.032;2023-09-07T01:35:08;4.60;;;1.90;;
81903;SDS011;71370;-33.792;151.032;2023-09-07T01:36:17;5.50;;;2.20;;
81903;SDS011;71370;-33.792;151.032;2023-09-07T01:37:24;6.60;;;2.80;;
81903;SDS011;71370;-33.792;151.032;2023-09-07T01:38:35;6.90;;;2.30;;
81903;SDS011;71370;-33.792;151.032;2023-09-07T01:39:42;5.50;;;1.90;;
81903;SDS011;71370;-33.792;151.032;2023-09-07T01:40:49;4.40;;;1.60;;
81903;SDS011;71370;-33.792;151.032;2023-09-07T01:41:56;6.50;;;1.80;;
81903;SDS011;71370;-33.792;151.032;2023-09-07T01:43:03;5.30;;;2.90;;
81903;SDS011;71370;-33.792;151.032;2023-09-07T01:44:10;6.60;;;1.90;;
81903;SDS011;71370;-33.792;151.032;2023-09-07T01:45:17;4.50;;;2.30;;
81903;SDS011;71370;-33.792;151.032;2023-09-07T01:46:25;4.60;;;1.70;;
81903;SDS011;71370;-33.792;151.032;2023-09-07T01:47:32;3.70;;;2.60;;
81903;SDS011;71370;-33.792;151.032;2023-09-07T01:48:39;7.00;;;2.20;;
81903;SDS011;71370;-33.792;151.032;2023-09-07T01:49:47;5.50;;;1.80;;
81903;SDS011;71370;-33.792;151.032;2023-09-07T01:50:55;4.00;;;2.40;;
81903;SDS011;71370;-33.792;151.032;2023-09-07T01:52:02;4.80;;;2.10;;
81903;SDS011;71370;-33.792;151.032;2023-09-07T01:53:09;6.20;;;2.00;;
81903;SDS011;71370;-33.792;151.032;2023-09-07T01:54:16;5.70;;;2.10;;
81903;SDS011;71370;-33.792;151.032;2023-09-07T01:55:24;5.00;;;2.00;;
81903;SDS011;71370;-33.792;151.032;2023-09-07T01:56:33;5.10;;;2.30;;
81903;SDS011;71370;-33.792;151.032;2023-09-07T01:57:40;3.90;;;1.90;;
81903;SDS011;71370;-33.792;151.032;2023-09-07T01:58:47;4.80;;;2.60;;
81903;SDS011;71370;-33.792;151.032;2023-09-07T01:59:54;4.10;;;1.70;;
81903;SDS011;71370;-33.792;151.032;2023-09-07T02:01:01;7.30;;;2.00;;
81903;SDS011;71370;-33.792;151.032;2023-09-07T02:02:08;4.00;;;2.20;;
81903;SDS011;71370;-33.792;151.032;2023-09-07T02:03:16;5.50;;;2.10;;
81903;SDS011;71370;-33.792;151.032;2023-09-07T02:04:23;3.90;;;2.30;;
81903;SDS011;71370;-33.792;151.032;2023-09-07T02:05:30;4.20;;;2.00;;
81903;SDS011;71370;-33.792;151.032;2023-09-07T02:06:38;4.60;;;2.30;;
81903;SDS011;71370;-33.792;151.032;2023-09-07T02:07:45;5.50;;;2.20;;
81903;SDS011;71370;-33.792;151.032;2023-09-07T02:08:55;5.10;;;1.90;;
81903;SDS011;71370;-33.792;151.032;2023-09-07T02:10:02;4.30;;;1.80;;
81903;SDS011;71370;-33.792;151.032;2023-09-07T02:11:09;4.30;;;2.10;;
81903;SDS011;71370;-33.792;151.032;2023-09-07T02:12:16;5.50;;;2.30;;
81903;SDS011;71370;-33.792;151.032;2023-09-07T02:13:23;4.20;;;2.00;;
81903;SDS011;71370;-33.792;151.032;2023-09-07T02:14:31;3.60;;;2.10;;
81903;SDS011;71370;-33.792;151.032;2023-09-07T02:15:38;4.60;;;2.20;;
81903;SDS011;71370;-33.792;151.032;2023-09-07T02:16:45;4.70;;;2.70;;
81903;SDS011;71370;-33.792;151.032;2023-09-07T02:17:53;5.90;;;2.90;;
81903;SDS011;71370;-33.792;151.032;2023-09-07T02:19:01;3.70;;;1.80;;
81903;SDS011;71370;-33.792;151.032;2023-09-07T02:20:09;5.40;;;2.10;;
81903;SDS011;71370;-33.792;151.032;2023-09-07T02:21:19;5.80;;;1.90;;
81903;SDS011;71370;-33.792;151.032;2023-09-07T02:22:27;4.50;;;2.20;;
81903;SDS011;71370;-33.792;151.032;2023-09-07T02:23:34;5.90;;;2.30;;
81903;SDS011;71370;-33.792;151.032;2023-09-07T02:24:44;5.50;;;2.10;;
81903;SDS011;71370;-33.792;151.032;2023-09-07T02:25:52;5.50;;;2.20;;
81903;SDS011;71370;-33.792;151.032;2023-09-07T02:26:59;5.00;;;2.00;;
81903;SDS011;71370;-33.792;151.032;2023-09-07T02:28:06;4.70;;;2.10;;
81903;SDS011;71370;-33.792;151.032;2023-09-07T02:29:13;5.00;;;2.50;;
81903;SDS011;71370;-33.792;151.032;2023-09-07T02:30:20;4.50;;;2.40;;
81903;SDS011;71370;-33.792;151.032;2023-09-07T02:31:27;4.60;;;2.90;;
81903;SDS011;71370;-33.792;151.032;2023-09-07T02:32:34;5.00;;;2.50;;
81903;SDS011;71370;-33.792;151.032;2023-09-07T02:33:41;5.30;;;2.70;;
81903;SDS011;71370;-33.792;151.032;2023-09-07T02:34:48;3.80;;;2.00;;
81903;SDS011;71370;-33.792;151.032;2023-09-07T02:35:56;5.90;;;3.00;;
81903;SDS011;71370;-33.792;151.032;2023-09-07T02:37:04;3.90;;;1.70;;
81903;SDS011;71370;-33.792;151.032;2023-09-07T02:38:11;4.70;;;2.20;;
81903;SDS011;71370;-33.792;151.032;2023-09-07T02:39:19;6.00;;;2.30;;
81903;SDS011;71370;-33.792;151.032;2023-09-07T02:40:26;4.50;;;2.00;;
81903;SDS011;71370;-33.792;151.032;2023-09-07T02:41:33;3.50;;;1.60;;
81903;SDS011;71370;-33.792;151.032;2023-09-07T02:42:41;3.90;;;1.70;;
81903;SDS011;71370;-33.792;151.032;2023-09-07T02:43:48;7.60;;;2.60;;
81903;SDS011;71370;-33.792;151.032;2023-09-07T02:44:55;4.10;;;1.80;;
81903;SDS011;71370;-33.792;151.032;2023-09-07T02:46:02;3.80;;;1.90;;
81903;SDS011;71370;-33.792;151.032;2023-09-07T02:47:09;4.70;;;2.00;;
81903;SDS011;71370;-33.792;151.032;2023-09-07T02:48:16;5.00;;;2.50;;
81903;SDS011;71370;-33.792;151.032;2023-09-07T02:49:23;4.00;;;1.90;;
81903;SDS011;71370;-33.792;151.032;2023-09-07T02:50:34;4.70;;;2.40;;
81903;SDS011;71370;-33.792;151.032;2023-09-07T02:51:41;3.50;;;2.20;;
81903;SDS011;71370;-33.792;151.032;2023-09-07T02:52:48;4.50;;;2.50;;
81903;SDS011;71370;-33.792;151.032;2023-09-07T02:53:55;4.90;;;2.50;;
81903;SDS011;71370;-33.792;151.032;2023-09-07T02:55:03;4.10;;;2.00;;
81903;SDS011;71370;-33.792;151.032;2023-09-07T02:56:12;4.60;;;2.30;;
81903;SDS011;71370;-33.792;151.032;2023-09-07T02:57:19;4.20;;;2.60;;
81903;SDS011;71370;-33.792;151.032;2023-09-07T02:58:26;4.10;;;2.30;;
81903;SDS011;71370;-33.792;151.032;2023-09-07T02:59:33;5.40;;;3.40;;
81903;SDS011;71370;-33.792;151.032;2023-09-07T03:00:43;3.40;;;1.40;;
81903;SDS011;71370;-33.792;151.032;2023-09-07T03:01:52;5.80;;;2.20;;
81903;SDS011;71370;-33.792;151.032;2023-09-07T03:02:59;4.80;;;2.20;;
81903;SDS011;71370;-33.792;151.032;2023-09-07T03:04:06;5.30;;;2.60;;
81903;SDS011;71370;-33.792;151.032;2023-09-07T03:05:13;4.70;;;2.60;;
81903;SDS011;71370;-33.792;151.032;2023-09-07T03:06:21;4.80;;;2.20;;
81903;SDS011;71370;-33.792;151.032;2023-09-07T03:07:33;6.50;;;2.70;;
81903;SDS011;71370;-33.792;151.032;2023-09-07T03:08:40;6.30;;;3.00;;
81903;SDS011;71370;-33.792;151.032;2023-09-07T03:09:47;4.00;;;1.90;;
81903;SDS011;71370;-33.792;151.032;2023-09-07T03:10:54;4.90;;;2.80;;
81903;SDS011;71370;-33.792;151.032;2023-09-07T03:12:01;4.90;;;2.40;;
81903;SDS011;71370;-33.792;151.032;2023-09-07T03:13:08;4.80;;;2.60;;
81903;SDS011;71370;-33.792;151.032;2023-09-07T03:14:16;4.40;;;2.20;;
81903;SDS011;71370;-33.792;151.032;2023-09-07T03:15:23;5.20;;;2.90;;
81903;SDS011;71370;-33.792;151.032;2023-09-07T03:16:30;4.60;;;2.20;;
81903;SDS011;71370;-33.792;151.032;2023-09-07T03:17:37;4.30;;;2.40;;
81903;SDS011;71370;-33.792;151.032;2023-09-07T03:18:44;5.00;;;2.20;;
81903;SDS011;71370;-33.792;151.032;2023-09-07T03:19:51;4.40;;;2.30;;
81903;SDS011;71370;-33.792;151.032;2023-09-07T03:20:59;4.80;;;2.40;;
81903;SDS011;71370;-33.792;151.032;2023-09-07T03:22:08;4.80;;;2.40;;
81903;SDS011;71370;-33.792;151.032;2023-09-07T03:23:15;5.50;;;2.70;;
81903;SDS011;71370;-33.792;151.032;2023-09-07T03:24:22;5.20;;;2.20;;
81903;SDS011;71370;-33.792;151.032;2023-09-07T03:25:29;4.10;;;2.00;;
81903;SDS011;71370;-33.792;151.032;2023-09-07T03:26:37;4.90;;;2.50;;
81903;SDS011;71370;-33.792;151.032;2023-09-07T03:27:44;4.80;;;2.00;;
81903;SDS011;71370;-33.792;151.032;2023-09-07T03:28:51;4.70;;;2.40;;
81903;SDS011;71370;-33.792;151.032;2023-09-07T03:29:58;4.80;;;2.10;;
81903;SDS011;71370;-33.792;151.032;2023-09-07T03:31:05;5.10;;;2.50;;
81903;SDS011;71370;-33.792;151.032;2023-09-07T03:32:12;4.30;;;1.80;;
81903;SDS011;71370;-33.792;151.032;2023-09-07T03:33:19;5.00;;;2.50;;
81903;SDS011;71370;-33.792;151.032;2023-09-07T03:34:27;5.70;;;3.00;;
81903;SDS011;71370;-33.792;151.032;2023-09-07T03:35:34;4.20;;;2.20;;
81903;SDS011;71370;-33.792;151.032;2023-09-07T03:36:41;5.50;;;2.90;;
81903;SDS011;71370;-33.792;151.032;2023-09-07T03:37:48;4.80;;;2.80;;
81903;SDS011;71370;-33.792;151.032;2023-09-07T03:38:55;5.30;;;2.90;;
81903;SDS011;71370;-33.792;151.032;2023-09-07T03:40:03;4.90;;;2.60;;
81903;SDS011;71370;-33.792;151.032;2023-09-07T03:41:11;5.10;;;2.30;;
81903;SDS011;71370;-33.792;151.032;2023-09-07T03:42:17;4.80;;;2.50;;
81903;SDS011;71370;-33.792;151.032;2023-09-07T03:43:25;5.30;;;2.10;;
81903;SDS011;71370;-33.792;151.032;2023-09-07T03:44:32;6.20;;;2.40;;
81903;SDS011;71370;-33.792;151.032;2023-09-07T03:45:39;4.70;;;1.80;;
81903;SDS011;71370;-33.792;151.032;2023-09-07T03:46:46;5.50;;;2.70;;
81903;SDS011;71370;-33.792;151.032;2023-09-07T03:47:53;5.10;;;3.10;;
81903;SDS011;71370;-33.792;151.032;2023-09-07T03:49:00;4.30;;;2.00;;
81903;SDS011;71370;-33.792;151.032;2023-09-07T03:50:08;5.40;;;3.20;;
81903;SDS011;71370;-33.792;151.032;2023-09-07T03:51:15;4.90;;;2.30;;
81903;SDS011;71370;-33.792;151.032;2023-09-07T03:52:22;3.60;;;2.20;;
81903;SDS011;71370;-33.792;151.032;2023-09-07T03:53:32;4.80;;;2.60;;
81903;SDS011;71370;-33.792;151.032;2023-09-07T03:54:39;6.80;;;2.50;;
81903;SDS011;71370;-33.792;151.032;2023-09-07T03:55:46;4.70;;;2.40;;
81903;SDS011;71370;-33.792;151.032;2023-09-07T03:56:53;4.50;;;2.70;;
81903;SDS011;71370;-33.792;151.032;2023-09-07T03:58:00;4.90;;;2.70;;
81903;SDS011;71370;-33.792;151.032;2023-09-07T03:59:07;5.50;;;2.30;;
81903;SDS011;71370;-33.792;151.032;2023-09-07T04:00:14;3.80;;;2.40;;
81903;SDS011;71370;-33.792;151.032;2023-09-07T04:01:23;4.30;;;2.30;;
81903;SDS011;71370;-33.792;151.032;2023-09-07T04:02:31;3.90;;;3.00;;
81903;SDS011;71370;-33.792;151.032;2023-09-07T04:03:38;4.30;;;2.20;;
81903;SDS011;71370;-33.792;151.032;2023-09-07T04:04:52;4.50;;;2.20;;
81903;SDS011;71370;-33.792;151.032;2023-09-07T04:06:03;4.50;;;2.30;;
81903;SDS011;71370;-33.792;151.032;2023-09-07T04:07:10;5.10;;;2.00;;
81903;SDS011;71370;-33.792;151.032;2023-09-07T04:08:17;4.40;;;2.60;;
81903;SDS011;71370;-33.792;151.032;2023-09-07T04:09:24;4.20;;;2.20;;
81903;SDS011;71370;-33.792;151.032;2023-09-07T04:10:31;4.70;;;2.20;;
81903;SDS011;71370;-33.792;151.032;2023-09-07T04:11:38;3.60;;;2.10;;
81903;SDS011;71370;-33.792;151.032;2023-09-07T04:12:46;6.20;;;2.70;;
81903;SDS011;71370;-33.792;151.032;2023-09-07T04:13:53;3.60;;;1.90;;
81903;SDS011;71370;-33.792;151.032;2023-09-07T04:15:01;4.30;;;2.20;;
81903;SDS011;71370;-33.792;151.032;2023-09-07T04:16:08;5.00;;;2.40;;
81903;SDS011;71370;-33.792;151.032;2023-09-07T04:17:16;5.40;;;2.40;;
81903;SDS011;71370;-33.792;151.032;2023-09-07T04:18:23;4.20;;;2.20;;
81903;SDS011;71370;-33.792;151.032;2023-09-07T04:19:30;4.30;;;2.10;;
81903;SDS011;71370;-33.792;151.032;2023-09-07T04:20:38;4.60;;;2.30;;
81903;SDS011;71370;-33.792;151.032;2023-09-07T04:21:45;5.00;;;2.80;;
81903;SDS011;71370;-33.792;151.032;2023-09-07T04:22:52;5.60;;;2.60;;
81903;SDS011;71370;-33.792;151.032;2023-09-07T04:23:59;4.60;;;2.30;;
81903;SDS011;71370;-33.792;151.032;2023-09-07T04:25:07;5.00;;;2.60;;
81903;SDS011;71370;-33.792;151.032;2023-09-07T04:26:14;5.00;;;2.50;;
81903;SDS011;71370;-33.792;151.032;2023-09-07T04:27:21;4.50;;;2.30;;
81903;SDS011;71370;-33.792;151.032;2023-09-07T04:28:28;6.30;;;2.90;;
81903;SDS011;71370;-33.792;151.032;2023-09-07T04:29:35;7.00;;;3.20;;
81903;SDS011;71370;-33.792;151.032;2023-09-07T04:30:42;6.70;;;3.30;;
81903;SDS011;71370;-33.792;151.032;2023-09-07T04:31:49;6.50;;;5.80;;
81903;SDS011;71370;-33.792;151.032;2023-09-07T04:32:56;11.10;;;6.90;;
81903;SDS011;71370;-33.792;151.032;2023-09-07T04:34:03;13.30;;;11.80;;
81903;SDS011;71370;-33.792;151.032;2023-09-07T04:35:10;15.10;;;12.90;;
81903;SDS011;71370;-33.792;151.032;2023-09-07T04:36:18;22.40;;;19.90;;
81903;SDS011;71370;-33.792;151.032;2023-09-07T04:37:25;29.20;;;25.00;;
81903;SDS011;71370;-33.792;151.032;2023-09-07T04:38:32;29.30;;;25.60;;
81903;SDS011;71370;-33.792;151.032;2023-09-07T04:39:40;56.50;;;50.10;;
81903;SDS011;71370;-33.792;151.032;2023-09-07T04:40:47;56.20;;;50.30;;
81903;SDS011;71370;-33.792;151.032;2023-09-07T04:41:54;52.90;;;47.30;;
81903;SDS011;71370;-33.792;151.032;2023-09-07T04:43:01;54.00;;;48.10;;
81903;SDS011;71370;-33.792;151.032;2023-09-07T04:44:08;57.60;;;50.50;;
81903;SDS011;71370;-33.792;151.032;2023-09-07T04:45:15;70.60;;;63.30;;
81903;SDS011;71370;-33.792;151.032;2023-09-07T04:46:23;71.70;;;64.10;;
81903;SDS011;71370;-33.792;151.032;2023-09-07T04:47:30;65.20;;;58.20;;
81903;SDS011;71370;-33.792;151.032;2023-09-07T04:48:38;56.20;;;50.10;;
81903;SDS011;71370;-33.792;151.032;2023-09-07T04:49:49;54.80;;;49.20;;
81903;SDS011;71370;-33.792;151.032;2023-09-07T04:50:59;52.70;;;47.30;;
81903;SDS011;71370;-33.792;151.032;2023-09-07T04:52:08;60.20;;;53.90;;
81903;SDS011;71370;-33.792;151.032;2023-09-07T04:53:15;52.80;;;47.30;;
81903;SDS011;71370;-33.792;151.032;2023-09-07T04:54:22;57.60;;;51.50;;
81903;SDS011;71370;-33.792;151.032;2023-09-07T04:55:29;54.90;;;49.10;;
81903;SDS011;71370;-33.792;151.032;2023-09-07T04:56:36;56.90;;;51.00;;
81903;SDS011;71370;-33.792;151.032;2023-09-07T04:57:43;61.40;;;54.90;;
81903;SDS011;71370;-33.792;151.032;2023-09-07T04:58:50;68.80;;;61.90;;
81903;SDS011;71370;-33.792;151.032;2023-09-07T04:59:58;73.70;;;66.10;;
81903;SDS011;71370;-33.792;151.032;2023-09-07T05:01:05;79.50;;;71.20;;
81903;SDS011;71370;-33.792;151.032;2023-09-07T05:02:16;89.30;;;80.50;;
81903;SDS011;71370;-33.792;151.032;2023-09-07T05:03:23;125.50;;;113.10;;
81903;SDS011;71370;-33.792;151.032;2023-09-07T05:04:30;134.70;;;121.30;;
81903;SDS011;71370;-33.792;151.032;2023-09-07T05:05:38;146.00;;;131.30;;
81903;SDS011;71370;-33.792;151.032;2023-09-07T05:06:45;158.20;;;142.90;;
81903;SDS011;71370;-33.792;151.032;2023-09-07T05:07:52;145.20;;;130.60;;
81903;SDS011;71370;-33.792;151.032;2023-09-07T05:08:59;148.60;;;133.30;;
81903;SDS011;71370;-33.792;151.032;2023-09-07T05:10:07;136.50;;;122.90;;
81903;SDS011;71370;-33.792;151.032;2023-09-07T05:11:17;131.80;;;118.50;;
81903;SDS011;71370;-33.792;151.032;2023-09-07T05:12:24;132.70;;;119.50;;
81903;SDS011;71370;-33.792;151.032;2023-09-07T05:13:32;130.80;;;117.50;;
81903;SDS011;71370;-33.792;151.032;2023-09-07T05:14:39;133.80;;;120.20;;
81903;SDS011;71370;-33.792;151.032;2023-09-07T05:15:49;137.00;;;123.10;;
81903;SDS011;71370;-33.792;151.032;2023-09-07T05:16:57;152.70;;;137.80;;
81903;SDS011;71370;-33.792;151.032;2023-09-07T05:18:04;137.00;;;123.10;;
81903;SDS011;71370;-33.792;151.032;2023-09-07T05:19:11;149.70;;;134.90;;
81903;SDS011;71370;-33.792;151.032;2023-09-07T05:20:19;141.10;;;126.60;;
81903;SDS011;71370;-33.792;151.032;2023-09-07T05:21:26;131.20;;;118.30;;
81903;SDS011;71370;-33.792;151.032;2023-09-07T05:22:33;134.10;;;120.10;;
81903;SDS011;71370;-33.792;151.032;2023-09-07T05:23:43;130.10;;;116.50;;
81903;SDS011;71370;-33.792;151.032;2023-09-07T05:24:50;143.80;;;129.30;;
81903;SDS011;71370;-33.792;151.032;2023-09-07T05:25:57;130.20;;;117.20;;
81903;SDS011;71370;-33.792;151.032;2023-09-07T05:27:04;137.10;;;122.90;;
81903;SDS011;71370;-33.792;151.032;2023-09-07T05:28:14;142.20;;;127.60;;
81903;SDS011;71370;-33.792;151.032;2023-09-07T05:29:22;139.40;;;124.80;;
81903;SDS011;71370;-33.792;151.032;2023-09-07T05:30:29;132.60;;;118.70;;
81903;SDS011;71370;-33.792;151.032;2023-09-07T05:31:36;143.80;;;129.90;;
81903;SDS011;71370;-33.792;151.032;2023-09-07T05:32:44;126.90;;;113.90;;
81903;SDS011;71370;-33.792;151.032;2023-09-07T05:33:51;111.90;;;100.30;;
81903;SDS011;71370;-33.792;151.032;2023-09-07T05:34:58;115.10;;;103.20;;
81903;SDS011;71370;-33.792;151.032;2023-09-07T05:36:06;110.60;;;98.90;;
81903;SDS011;71370;-33.792;151.032;2023-09-07T05:37:14;111.70;;;100.20;;
81903;SDS011;71370;-33.792;151.032;2023-09-07T05:38:21;111.20;;;99.70;;
81903;SDS011;71370;-33.792;151.032;2023-09-07T05:39:28;109.70;;;98.20;;
81903;SDS011;71370;-33.792;151.032;2023-09-07T05:40:39;109.60;;;97.20;;
81903;SDS011;71370;-33.792;151.032;2023-09-07T05:41:50;103.80;;;92.80;;
81903;SDS011;71370;-33.792;151.032;2023-09-07T05:42:57;101.10;;;90.20;;
81903;SDS011;71370;-33.792;151.032;2023-09-07T05:44:05;106.10;;;94.50;;
81903;SDS011;71370;-33.792;151.032;2023-09-07T05:45:12;107.10;;;95.80;;
81903;SDS011;71370;-33.792;151.032;2023-09-07T05:46:19;104.80;;;93.70;;
81903;SDS011;71370;-33.792;151.032;2023-09-07T05:47:26;103.10;;;92.00;;
81903;SDS011;71370;-33.792;151.032;2023-09-07T05:48:34;103.10;;;92.00;;
81903;SDS011;71370;-33.792;151.032;2023-09-07T05:49:41;99.00;;;88.60;;
81903;SDS011;71370;-33.792;151.032;2023-09-07T05:50:48;105.40;;;94.00;;
81903;SDS011;71370;-33.792;151.032;2023-09-07T05:51:55;104.30;;;93.20;;
81903;SDS011;71370;-33.792;151.032;2023-09-07T05:53:03;101.50;;;90.50;;
81903;SDS011;71370;-33.792;151.032;2023-09-07T05:54:10;99.50;;;88.80;;
81903;SDS011;71370;-33.792;151.032;2023-09-07T05:55:18;101.00;;;90.30;;
81903;SDS011;71370;-33.792;151.032;2023-09-07T05:56:25;100.70;;;90.10;;
81903;SDS011;71370;-33.792;151.032;2023-09-07T05:57:32;96.10;;;85.70;;
81903;SDS011;71370;-33.792;151.032;2023-09-07T05:58:39;94.60;;;84.20;;
81903;SDS011;71370;-33.792;151.032;2023-09-07T05:59:46;92.10;;;82.20;;
81903;SDS011;71370;-33.792;151.032;2023-09-07T06:00:53;91.20;;;81.10;;
81903;SDS011;71370;-33.792;151.032;2023-09-07T06:02:00;87.70;;;78.30;;
81903;SDS011;71370;-33.792;151.032;2023-09-07T06:03:09;86.40;;;76.40;;
81903;SDS011;71370;-33.792;151.032;2023-09-07T06:04:17;84.00;;;74.90;;
81903;SDS011;71370;-33.792;151.032;2023-09-07T06:05:24;82.50;;;72.50;;
81903;SDS011;71370;-33.792;151.032;2023-09-07T06:06:31;80.40;;;70.90;;
81903;SDS011;71370;-33.792;151.032;2023-09-07T06:07:38;85.40;;;75.30;;
81903;SDS011;71370;-33.792;151.032;2023-09-07T06:08:45;83.40;;;72.30;;
81903;SDS011;71370;-33.792;151.032;2023-09-07T06:09:52;85.40;;;76.20;;
81903;SDS011;71370;-33.792;151.032;2023-09-07T06:10:59;88.20;;;76.60;;
81903;SDS011;71370;-33.792;151.032;2023-09-07T06:12:06;85.30;;;74.70;;
81903;SDS011;71370;-33.792;151.032;2023-09-07T06:13:14;83.80;;;74.90;;
81903;SDS011;71370;-33.792;151.032;2023-09-07T06:14:21;85.10;;;75.60;;
81903;SDS011;71370;-33.792;151.032;2023-09-07T06:15:28;87.20;;;77.20;;
81903;SDS011;71370;-33.792;151.032;2023-09-07T06:16:36;85.60;;;72.90;;
81903;SDS011;71370;-33.792;151.032;2023-09-07T06:17:43;82.50;;;72.40;;
81903;SDS011;71370;-33.792;151.032;2023-09-07T06:18:51;91.40;;;77.00;;
81903;SDS011;71370;-33.792;151.032;2023-09-07T06:19:58;88.00;;;75.60;;
81903;SDS011;71370;-33.792;151.032;2023-09-07T06:21:05;91.00;;;81.10;;
81903;SDS011;71370;-33.792;151.032;2023-09-07T06:22:12;84.40;;;74.50;;
81903;SDS011;71370;-33.792;151.032;2023-09-07T06:23:19;88.30;;;73.40;;
81903;SDS011;71370;-33.792;151.032;2023-09-07T06:24:26;88.40;;;76.90;;
81903;SDS011;71370;-33.792;151.032;2023-09-07T06:25:33;86.10;;;76.70;;